sensor_id;sensor_type;location;lat;lon;timestamp;P1;durP1;ratioP1;P2;durP2;ratioP2
75941;SDS011;64622;46.220;19.878;2023-08-01T00:00:10;11.60;;;4.72;;
75941;SDS011;64622;46.220;19.878;2023-08-01T00:02:37;11.70;;;4.45;;
75941;SDS011;64622;46.220;19.878;2023-08-01T00:05:05;11.97;;;4.67;;
75941;SDS011;64622;46.220;19.878;2023-08-01T00:07:32;12.35;;;4.80;;
75941;SDS011;64622;46.220;19.878;2023-08-01T00:09:58;13.10;;;4.95;;
75941;SDS011;64622;46.220;19.878;2023-08-01T00:12:26;11.52;;;4.40;;
75941;SDS011;64622;46.220;19.878;2023-08-01T00:14:53;13.10;;;5.50;;
75941;SDS011;64622;46.220;19.878;2023-08-01T00:17:19;9.97;;;4.60;;
75941;SDS011;64622;46.220;19.878;2023-08-01T00:19:47;12.27;;;4.60;;
75941;SDS011;64622;46.220;19.878;2023-08-01T00:22:14;11.27;;;4.37;;
75941;SDS011;64622;46.220;19.878;2023-08-01T00:24:41;12.60;;;4.78;;
75941;SDS011;64622;46.220;19.878;2023-08-01T00:27:08;10.23;;;4.15;;
75941;SDS011;64622;46.220;19.878;2023-08-01T00:29:36;12.37;;;4.70;;
75941;SDS011;64622;46.220;19.878;2023-08-01T00:32:03;12.65;;;5.10;;
75941;SDS011;64622;46.220;19.878;2023-08-01T00:34:31;11.63;;;4.43;;
75941;SDS011;64622;46.220;19.878;2023-08-01T00:36:58;16.10;;;4.60;;
75941;SDS011;64622;46.220;19.878;2023-08-01T00:39:24;11.27;;;4.47;;
75941;SDS011;64622;46.220;19.878;2023-08-01T00:41:51;12.50;;;5.20;;
75941;SDS011;64622;46.220;19.878;2023-08-01T00:44:18;13.13;;;5.15;;
75941;SDS011;64622;46.220;19.878;2023-08-01T00:46:45;11.75;;;5.03;;
75941;SDS011;64622;46.220;19.878;2023-08-01T00:49:13;12.98;;;5.20;;
75941;SDS011;64622;46.220;19.878;2023-08-01T00:51:41;11.18;;;5.00;;
75941;SDS011;64622;46.220;19.878;2023-08-01T00:54:08;11.10;;;4.70;;
75941;SDS011;64622;46.220;19.878;2023-08-01T00:56:36;11.93;;;4.93;;
75941;SDS011;64622;46.220;19.878;2023-08-01T00:59:03;11.23;;;5.05;;
75941;SDS011;64622;46.220;19.878;2023-08-01T01:01:30;12.70;;;5.30;;
75941;SDS011;64622;46.220;19.878;2023-08-01T01:03:57;12.88;;;5.10;;
75941;SDS011;64622;46.220;19.878;2023-08-01T01:06:45;11.60;;;5.30;;
75941;SDS011;64622;46.220;19.878;2023-08-01T01:09:17;13.27;;;4.80;;
75941;SDS011;64622;46.220;19.878;2023-08-01T01:11:45;11.70;;;5.35;;
75941;SDS011;64622;46.220;19.878;2023-08-01T01:14:12;11.55;;;5.45;;
75941;SDS011;64622;46.220;19.878;2023-08-01T01:16:39;11.32;;;5.25;;
75941;SDS011;64622;46.220;19.878;2023-08-01T01:19:07;11.50;;;5.33;;
75941;SDS011;64622;46.220;19.878;2023-08-01T01:21:35;11.15;;;5.87;;
75941;SDS011;64622;46.220;19.878;2023-08-01T01:24:04;13.82;;;5.53;;
75941;SDS011;64622;46.220;19.878;2023-08-01T01:26:33;12.02;;;5.57;;
75941;SDS011;64622;46.220;19.878;2023-08-01T01:29:01;13.80;;;5.32;;
75941;SDS011;64622;46.220;19.878;2023-08-01T01:31:30;13.70;;;5.60;;
75941;SDS011;64622;46.220;19.878;2023-08-01T01:33:58;14.50;;;5.40;;
75941;SDS011;64622;46.220;19.878;2023-08-01T01:36:25;10.70;;;5.28;;
75941;SDS011;64622;46.220;19.878;2023-08-01T01:38:52;10.40;;;5.35;;
75941;SDS011;64622;46.220;19.878;2023-08-01T01:41:18;13.88;;;4.43;;
75941;SDS011;64622;46.220;19.878;2023-08-01T01:43:45;10.20;;;4.50;;
75941;SDS011;64622;46.220;19.878;2023-08-01T01:46:12;11.85;;;4.95;;
75941;SDS011;64622;46.220;19.878;2023-08-01T01:48:38;12.88;;;5.10;;
75941;SDS011;64622;46.220;19.878;2023-08-01T01:51:05;10.55;;;4.80;;
75941;SDS011;64622;46.220;19.878;2023-08-01T01:53:31;11.57;;;4.53;;
75941;SDS011;64622;46.220;19.878;2023-08-01T01:55:58;10.10;;;4.43;;
75941;SDS011;64622;46.220;19.878;2023-08-01T01:58:25;13.32;;;4.65;;
75941;SDS011;64622;46.220;19.878;2023-08-01T02:00:52;14.07;;;5.60;;
75941;SDS011;64622;46.220;19.878;2023-08-01T02:03:19;11.38;;;5.20;;
75941;SDS011;64622;46.220;19.878;2023-08-01T02:05:45;10.48;;;4.72;;
75941;SDS011;64622;46.220;19.878;2023-08-01T02:08:12;11.17;;;5.00;;
75941;SDS011;64622;46.220;19.878;2023-08-01T02:10:38;11.93;;;4.80;;
75941;SDS011;64622;46.220;19.878;2023-08-01T02:13:06;10.55;;;4.85;;
75941;SDS011;64622;46.220;19.878;2023-08-01T02:15:34;11.40;;;5.10;;
75941;SDS011;64622;46.220;19.878;2023-08-01T02:18:00;11.40;;;4.95;;
75941;SDS011;64622;46.220;19.878;2023-08-01T02:20:27;10.13;;;4.60;;
75941;SDS011;64622;46.220;19.878;2023-08-01T02:22:55;11.18;;;5.30;;
75941;SDS011;64622;46.220;19.878;2023-08-01T02:25:22;11.40;;;4.95;;
75941;SDS011;64622;46.220;19.878;2023-08-01T02:27:48;17.08;;;5.35;;
75941;SDS011;64622;46.220;19.878;2023-08-01T02:30:15;13.35;;;5.20;;
75941;SDS011;64622;46.220;19.878;2023-08-01T02:32:43;13.03;;;5.97;;
75941;SDS011;64622;46.220;19.878;2023-08-01T02:35:09;12.27;;;5.18;;
75941;SDS011;64622;46.220;19.878;2023-08-01T02:37:36;11.82;;;4.93;;
75941;SDS011;64622;46.220;19.878;2023-08-01T02:40:03;11.38;;;4.43;;
75941;SDS011;64622;46.220;19.878;2023-08-01T02:42:33;12.88;;;5.40;;
75941;SDS011;64622;46.220;19.878;2023-08-01T02:45:00;9.93;;;4.70;;
75941;SDS011;64622;46.220;19.878;2023-08-01T02:47:26;11.85;;;5.12;;
75941;SDS011;64622;46.220;19.878;2023-08-01T02:49:53;14.38;;;5.32;;
75941;SDS011;64622;46.220;19.878;2023-08-01T02:52:20;14.87;;;5.50;;
75941;SDS011;64622;46.220;19.878;2023-08-01T02:54:46;12.85;;;4.70;;
75941;SDS011;64622;46.220;19.878;2023-08-01T02:57:12;12.13;;;4.90;;
75941;SDS011;64622;46.220;19.878;2023-08-01T02:59:39;11.80;;;5.78;;
75941;SDS011;64622;46.220;19.878;2023-08-01T03:02:06;13.77;;;5.60;;
75941;SDS011;64622;46.220;19.878;2023-08-01T03:04:32;14.07;;;6.40;;
75941;SDS011;64622;46.220;19.878;2023-08-01T03:06:59;12.57;;;5.55;;
75941;SDS011;64622;46.220;19.878;2023-08-01T03:09:26;12.67;;;6.17;;
75941;SDS011;64622;46.220;19.878;2023-08-01T03:11:53;12.68;;;6.18;;
75941;SDS011;64622;46.220;19.878;2023-08-01T03:14:19;13.77;;;6.65;;
75941;SDS011;64622;46.220;19.878;2023-08-01T03:16:46;12.63;;;7.12;;
75941;SDS011;64622;46.220;19.878;2023-08-01T03:19:13;14.70;;;7.12;;
75941;SDS011;64622;46.220;19.878;2023-08-01T03:21:40;13.63;;;6.33;;
75941;SDS011;64622;46.220;19.878;2023-08-01T03:24:06;14.68;;;7.40;;
75941;SDS011;64622;46.220;19.878;2023-08-01T03:26:35;13.73;;;6.82;;
75941;SDS011;64622;46.220;19.878;2023-08-01T03:29:02;13.50;;;6.50;;
75941;SDS011;64622;46.220;19.878;2023-08-01T03:31:32;15.05;;;6.90;;
75941;SDS011;64622;46.220;19.878;2023-08-01T03:33:58;12.93;;;6.47;;
75941;SDS011;64622;46.220;19.878;2023-08-01T03:36:25;15.07;;;6.60;;
75941;SDS011;64622;46.220;19.878;2023-08-01T03:38:51;13.95;;;6.15;;
75941;SDS011;64622;46.220;19.878;2023-08-01T03:41:18;12.75;;;5.50;;
75941;SDS011;64622;46.220;19.878;2023-08-01T03:43:45;11.82;;;5.85;;
75941;SDS011;64622;46.220;19.878;2023-08-01T03:46:12;12.33;;;5.73;;
75941;SDS011;64622;46.220;19.878;2023-08-01T03:48:38;11.77;;;5.60;;
75941;SDS011;64622;46.220;19.878;2023-08-01T03:51:05;14.45;;;5.93;;
75941;SDS011;64622;46.220;19.878;2023-08-01T03:53:31;26.12;;;22.33;;
75941;SDS011;64622;46.220;19.878;2023-08-01T03:55:58;12.90;;;7.68;;
75941;SDS011;64622;46.220;19.878;2023-08-01T03:58:25;12.10;;;4.90;;
75941;SDS011;64622;46.220;19.878;2023-08-01T04:00:51;9.43;;;5.03;;
75941;SDS011;64622;46.220;19.878;2023-08-01T04:03:19;13.52;;;5.40;;
75941;SDS011;64622;46.220;19.878;2023-08-01T04:05:46;11.20;;;5.00;;
75941;SDS011;64622;46.220;19.878;2023-08-01T04:08:12;13.13;;;4.82;;
75941;SDS011;64622;46.220;19.878;2023-08-01T04:10:39;10.10;;;5.10;;
75941;SDS011;64622;46.220;19.878;2023-08-01T04:13:05;10.95;;;4.90;;
75941;SDS011;64622;46.220;19.878;2023-08-01T04:15:32;17.80;;;5.20;;
75941;SDS011;64622;46.220;19.878;2023-08-01T04:17:59;10.82;;;5.07;;
75941;SDS011;64622;46.220;19.878;2023-08-01T04:20:25;11.98;;;4.55;;
75941;SDS011;64622;46.220;19.878;2023-08-01T04:22:51;12.73;;;4.47;;
75941;SDS011;64622;46.220;19.878;2023-08-01T04:25:18;10.52;;;4.60;;
75941;SDS011;64622;46.220;19.878;2023-08-01T04:27:45;10.02;;;4.28;;
75941;SDS011;64622;46.220;19.878;2023-08-01T04:30:11;15.02;;;4.30;;
75941;SDS011;64622;46.220;19.878;2023-08-01T04:32:39;14.82;;;4.62;;
75941;SDS011;64622;46.220;19.878;2023-08-01T04:35:05;11.13;;;3.83;;
75941;SDS011;64622;46.220;19.878;2023-08-01T04:37:32;8.85;;;3.37;;
75941;SDS011;64622;46.220;19.878;2023-08-01T04:39:59;8.85;;;3.80;;
75941;SDS011;64622;46.220;19.878;2023-08-01T04:42:25;8.95;;;3.45;;
75941;SDS011;64622;46.220;19.878;2023-08-01T04:44:51;10.27;;;4.10;;
75941;SDS011;64622;46.220;19.878;2023-08-01T04:47:18;9.87;;;3.70;;
75941;SDS011;64622;46.220;19.878;2023-08-01T04:49:45;9.55;;;3.65;;
75941;SDS011;64622;46.220;19.878;2023-08-01T04:52:12;10.90;;;3.80;;
75941;SDS011;64622;46.220;19.878;2023-08-01T04:54:38;8.98;;;3.70;;
75941;SDS011;64622;46.220;19.878;2023-08-01T04:57:05;10.85;;;3.67;;
75941;SDS011;64622;46.220;19.878;2023-08-01T04:59:31;11.93;;;3.70;;
75941;SDS011;64622;46.220;19.878;2023-08-01T05:01:58;10.43;;;3.40;;
75941;SDS011;64622;46.220;19.878;2023-08-01T05:04:25;14.52;;;3.37;;
75941;SDS011;64622;46.220;19.878;2023-08-01T05:06:51;8.18;;;3.20;;
75941;SDS011;64622;46.220;19.878;2023-08-01T05:09:18;10.32;;;3.40;;
75941;SDS011;64622;46.220;19.878;2023-08-01T05:11:45;11.10;;;3.77;;
75941;SDS011;64622;46.220;19.878;2023-08-01T05:14:11;9.32;;;3.33;;
75941;SDS011;64622;46.220;19.878;2023-08-01T05:16:38;11.25;;;4.03;;
75941;SDS011;64622;46.220;19.878;2023-08-01T05:19:05;11.43;;;3.83;;
75941;SDS011;64622;46.220;19.878;2023-08-01T05:21:31;8.82;;;2.92;;
75941;SDS011;64622;46.220;19.878;2023-08-01T05:23:58;9.10;;;2.87;;
75941;SDS011;64622;46.220;19.878;2023-08-01T05:26:25;11.30;;;3.37;;
75941;SDS011;64622;46.220;19.878;2023-08-01T05:28:51;10.30;;;3.00;;
75941;SDS011;64622;46.220;19.878;2023-08-01T05:31:18;16.67;;;3.15;;
75941;SDS011;64622;46.220;19.878;2023-08-01T05:33:45;10.02;;;3.20;;
75941;SDS011;64622;46.220;19.878;2023-08-01T05:36:12;10.83;;;2.73;;
75941;SDS011;64622;46.220;19.878;2023-08-01T05:38:38;8.13;;;2.95;;
75941;SDS011;64622;46.220;19.878;2023-08-01T05:41:05;13.23;;;2.90;;
75941;SDS011;64622;46.220;19.878;2023-08-01T05:43:32;10.20;;;2.70;;
75941;SDS011;64622;46.220;19.878;2023-08-01T05:45:59;8.90;;;2.65;;
75941;SDS011;64622;46.220;19.878;2023-08-01T05:48:25;10.17;;;2.90;;
75941;SDS011;64622;46.220;19.878;2023-08-01T05:50:51;8.63;;;2.30;;
75941;SDS011;64622;46.220;19.878;2023-08-01T05:53:21;9.60;;;2.72;;
75941;SDS011;64622;46.220;19.878;2023-08-01T05:55:48;8.35;;;2.72;;
75941;SDS011;64622;46.220;19.878;2023-08-01T05:58:15;7.93;;;2.37;;
75941;SDS011;64622;46.220;19.878;2023-08-01T06:00:42;8.53;;;2.27;;
75941;SDS011;64622;46.220;19.878;2023-08-01T06:03:09;7.57;;;2.30;;
75941;SDS011;64622;46.220;19.878;2023-08-01T06:05:35;8.68;;;2.33;;
75941;SDS011;64622;46.220;19.878;2023-08-01T06:08:05;8.70;;;2.75;;
75941;SDS011;64622;46.220;19.878;2023-08-01T06:10:33;8.98;;;2.12;;
75941;SDS011;64622;46.220;19.878;2023-08-01T06:12:59;6.93;;;1.97;;
75941;SDS011;64622;46.220;19.878;2023-08-01T06:15:26;8.50;;;2.20;;
75941;SDS011;64622;46.220;19.878;2023-08-01T06:17:53;7.87;;;2.35;;
75941;SDS011;64622;46.220;19.878;2023-08-01T06:20:19;9.15;;;2.60;;
75941;SDS011;64622;46.220;19.878;2023-08-01T06:22:46;9.55;;;2.58;;
75941;SDS011;64622;46.220;19.878;2023-08-01T06:25:13;8.43;;;2.77;;
75941;SDS011;64622;46.220;19.878;2023-08-01T06:27:39;9.27;;;2.17;;
75941;SDS011;64622;46.220;19.878;2023-08-01T06:30:06;9.15;;;3.08;;
75941;SDS011;64622;46.220;19.878;2023-08-01T06:32:33;10.27;;;2.75;;
75941;SDS011;64622;46.220;19.878;2023-08-01T06:35:00;9.30;;;2.12;;
75941;SDS011;64622;46.220;19.878;2023-08-01T06:37:30;8.30;;;2.27;;
75941;SDS011;64622;46.220;19.878;2023-08-01T06:39:57;9.48;;;1.83;;
75941;SDS011;64622;46.220;19.878;2023-08-01T06:42:24;12.65;;;3.00;;
75941;SDS011;64622;46.220;19.878;2023-08-01T06:44:51;8.40;;;2.22;;
75941;SDS011;64622;46.220;19.878;2023-08-01T06:47:17;11.38;;;2.37;;
75941;SDS011;64622;46.220;19.878;2023-08-01T06:49:44;8.90;;;2.23;;
75941;SDS011;64622;46.220;19.878;2023-08-01T06:52:11;9.27;;;1.90;;
75941;SDS011;64622;46.220;19.878;2023-08-01T06:54:37;9.48;;;2.55;;
75941;SDS011;64622;46.220;19.878;2023-08-01T06:57:04;9.18;;;2.45;;
75941;SDS011;64622;46.220;19.878;2023-08-01T06:59:31;9.55;;;2.60;;
75941;SDS011;64622;46.220;19.878;2023-08-01T07:01:58;9.60;;;1.77;;
75941;SDS011;64622;46.220;19.878;2023-08-01T07:04:24;9.25;;;2.30;;
75941;SDS011;64622;46.220;19.878;2023-08-01T07:06:51;7.90;;;1.90;;
75941;SDS011;64622;46.220;19.878;2023-08-01T07:09:18;7.22;;;1.50;;
75941;SDS011;64622;46.220;19.878;2023-08-01T07:11:44;8.07;;;1.65;;
75941;SDS011;64622;46.220;19.878;2023-08-01T07:14:11;7.87;;;1.80;;
75941;SDS011;64622;46.220;19.878;2023-08-01T07:16:37;7.47;;;1.23;;
75941;SDS011;64622;46.220;19.878;2023-08-01T07:19:04;6.30;;;1.50;;
75941;SDS011;64622;46.220;19.878;2023-08-01T07:21:30;9.13;;;1.77;;
75941;SDS011;64622;46.220;19.878;2023-08-01T07:23:57;6.20;;;1.40;;
75941;SDS011;64622;46.220;19.878;2023-08-01T07:26:24;11.03;;;1.80;;
75941;SDS011;64622;46.220;19.878;2023-08-01T07:28:50;6.82;;;1.85;;
75941;SDS011;64622;46.220;19.878;2023-08-01T07:31:17;7.20;;;1.70;;
75941;SDS011;64622;46.220;19.878;2023-08-01T07:33:44;6.68;;;1.70;;
75941;SDS011;64622;46.220;19.878;2023-08-01T07:36:10;10.70;;;2.15;;
75941;SDS011;64622;46.220;19.878;2023-08-01T07:38:37;7.13;;;1.50;;
75941;SDS011;64622;46.220;19.878;2023-08-01T07:41:04;8.27;;;1.35;;
75941;SDS011;64622;46.220;19.878;2023-08-01T07:43:33;9.65;;;1.60;;
75941;SDS011;64622;46.220;19.878;2023-08-01T07:46:00;8.80;;;1.58;;
75941;SDS011;64622;46.220;19.878;2023-08-01T07:48:27;8.88;;;1.90;;
75941;SDS011;64622;46.220;19.878;2023-08-01T07:50:53;8.27;;;1.50;;
75941;SDS011;64622;46.220;19.878;2023-08-01T07:53:19;9.80;;;1.67;;
75941;SDS011;64622;46.220;19.878;2023-08-01T07:55:46;6.20;;;1.23;;
75941;SDS011;64622;46.220;19.878;2023-08-01T07:58:12;6.80;;;1.73;;
75941;SDS011;64622;46.220;19.878;2023-08-01T08:00:39;7.40;;;1.48;;
75941;SDS011;64622;46.220;19.878;2023-08-01T08:03:06;7.13;;;1.80;;
75941;SDS011;64622;46.220;19.878;2023-08-01T08:05:34;7.30;;;1.70;;
75941;SDS011;64622;46.220;19.878;2023-08-01T08:08:04;7.45;;;1.52;;
75941;SDS011;64622;46.220;19.878;2023-08-01T08:10:31;8.07;;;1.30;;
75941;SDS011;64622;46.220;19.878;2023-08-01T08:12:58;6.85;;;1.60;;
75941;SDS011;64622;46.220;19.878;2023-08-01T08:15:25;7.57;;;1.47;;
75941;SDS011;64622;46.220;19.878;2023-08-01T08:17:52;6.47;;;1.30;;
75941;SDS011;64622;46.220;19.878;2023-08-01T08:20:19;8.07;;;1.95;;
75941;SDS011;64622;46.220;19.878;2023-08-01T08:22:45;5.95;;;1.45;;
75941;SDS011;64622;46.220;19.878;2023-08-01T08:25:12;5.90;;;1.35;;
75941;SDS011;64622;46.220;19.878;2023-08-01T08:27:38;8.43;;;1.60;;
75941;SDS011;64622;46.220;19.878;2023-08-01T08:30:05;6.87;;;1.58;;
75941;SDS011;64622;46.220;19.878;2023-08-01T08:32:32;6.68;;;1.48;;
75941;SDS011;64622;46.220;19.878;2023-08-01T08:34:59;8.55;;;1.55;;
75941;SDS011;64622;46.220;19.878;2023-08-01T08:37:25;7.20;;;1.60;;
75941;SDS011;64622;46.220;19.878;2023-08-01T08:39:52;6.10;;;1.17;;
75941;SDS011;64622;46.220;19.878;2023-08-01T08:42:18;10.50;;;2.00;;
75941;SDS011;64622;46.220;19.878;2023-08-01T08:44:49;8.90;;;1.48;;
75941;SDS011;64622;46.220;19.878;2023-08-01T08:47:22;9.30;;;1.40;;
75941;SDS011;64622;46.220;19.878;2023-08-01T08:49:51;7.03;;;1.60;;
75941;SDS011;64622;46.220;19.878;2023-08-01T08:52:21;8.40;;;1.40;;
75941;SDS011;64622;46.220;19.878;2023-08-01T08:54:47;6.57;;;1.10;;
75941;SDS011;64622;46.220;19.878;2023-08-01T08:57:15;7.62;;;1.52;;
75941;SDS011;64622;46.220;19.878;2023-08-01T08:59:42;7.10;;;1.40;;
75941;SDS011;64622;46.220;19.878;2023-08-01T09:02:10;6.93;;;1.80;;
75941;SDS011;64622;46.220;19.878;2023-08-01T09:04:36;8.33;;;1.63;;
75941;SDS011;64622;46.220;19.878;2023-08-01T09:07:09;7.37;;;1.20;;
75941;SDS011;64622;46.220;19.878;2023-08-01T09:09:39;6.25;;;1.30;;
75941;SDS011;64622;46.220;19.878;2023-08-01T09:12:06;6.90;;;1.25;;
75941;SDS011;64622;46.220;19.878;2023-08-01T09:14:35;7.78;;;1.42;;
75941;SDS011;64622;46.220;19.878;2023-08-01T09:17:05;6.80;;;1.60;;
75941;SDS011;64622;46.220;19.878;2023-08-01T09:19:34;7.82;;;1.60;;
75941;SDS011;64622;46.220;19.878;2023-08-01T09:22:01;7.60;;;1.37;;
75941;SDS011;64622;46.220;19.878;2023-08-01T09:24:28;6.50;;;1.35;;
75941;SDS011;64622;46.220;19.878;2023-08-01T09:27:01;7.78;;;1.70;;
75941;SDS011;64622;46.220;19.878;2023-08-01T09:29:30;7.07;;;1.40;;
75941;SDS011;64622;46.220;19.878;2023-08-01T09:32:00;5.75;;;1.25;;
75941;SDS011;64622;46.220;19.878;2023-08-01T09:34:37;5.93;;;1.00;;
75941;SDS011;64622;46.220;19.878;2023-08-01T09:37:04;7.18;;;1.20;;
75941;SDS011;64622;46.220;19.878;2023-08-01T09:39:31;6.80;;;1.30;;
75941;SDS011;64622;46.220;19.878;2023-08-01T09:41:58;7.67;;;1.40;;
75941;SDS011;64622;46.220;19.878;2023-08-01T09:44:26;6.80;;;1.45;;
75941;SDS011;64622;46.220;19.878;2023-08-01T09:46:55;9.63;;;1.60;;
75941;SDS011;64622;46.220;19.878;2023-08-01T09:49:27;7.90;;;1.30;;
75941;SDS011;64622;46.220;19.878;2023-08-01T09:51:54;5.85;;;1.35;;
75941;SDS011;64622;46.220;19.878;2023-08-01T09:54:21;7.37;;;1.20;;
75941;SDS011;64622;46.220;19.878;2023-08-01T09:56:49;6.85;;;1.40;;
75941;SDS011;64622;46.220;19.878;2023-08-01T09:59:20;7.12;;;1.37;;
75941;SDS011;64622;46.220;19.878;2023-08-01T10:01:51;7.00;;;1.20;;
75941;SDS011;64622;46.220;19.878;2023-08-01T10:06:49;5.87;;;1.20;;
75941;SDS011;64622;46.220;19.878;2023-08-01T10:09:21;5.95;;;1.37;;
75941;SDS011;64622;46.220;19.878;2023-08-01T10:11:49;7.00;;;1.60;;
75941;SDS011;64622;46.220;19.878;2023-08-01T10:14:19;6.22;;;1.23;;
75941;SDS011;64622;46.220;19.878;2023-08-01T10:16:46;5.40;;;1.05;;
75941;SDS011;64622;46.220;19.878;2023-08-01T10:19:13;7.63;;;1.10;;
75941;SDS011;64622;46.220;19.878;2023-08-01T10:21:43;8.30;;;1.20;;
75941;SDS011;64622;46.220;19.878;2023-08-01T10:24:10;5.93;;;1.10;;
75941;SDS011;64622;46.220;19.878;2023-08-01T10:26:38;7.03;;;1.17;;
75941;SDS011;64622;46.220;19.878;2023-08-01T10:29:05;7.40;;;1.37;;
75941;SDS011;64622;46.220;19.878;2023-08-01T10:31:32;6.03;;;1.00;;
75941;SDS011;64622;46.220;19.878;2023-08-01T10:34:06;4.15;;;0.75;;
75941;SDS011;64622;46.220;19.878;2023-08-01T10:36:38;6.53;;;1.08;;
75941;SDS011;64622;46.220;19.878;2023-08-01T10:39:05;6.22;;;1.10;;
75941;SDS011;64622;46.220;19.878;2023-08-01T10:41:32;6.15;;;1.02;;
75941;SDS011;64622;46.220;19.878;2023-08-01T10:46:44;7.55;;;1.10;;
75941;SDS011;64622;46.220;19.878;2023-08-01T10:49:35;4.60;;;0.90;;
75941;SDS011;64622;46.220;19.878;2023-08-01T10:52:02;7.32;;;1.27;;
75941;SDS011;64622;46.220;19.878;2023-08-01T10:54:30;6.40;;;1.12;;
75941;SDS011;64622;46.220;19.878;2023-08-01T10:56:57;8.43;;;1.07;;
75941;SDS011;64622;46.220;19.878;2023-08-01T10:59:25;6.37;;;1.55;;
75941;SDS011;64622;46.220;19.878;2023-08-01T11:01:52;5.53;;;1.20;;
75941;SDS011;64622;46.220;19.878;2023-08-01T11:04:20;5.50;;;0.85;;
75941;SDS011;64622;46.220;19.878;2023-08-01T11:06:52;7.12;;;1.10;;
75941;SDS011;64622;46.220;19.878;2023-08-01T11:09:25;5.90;;;1.13;;
75941;SDS011;64622;46.220;19.878;2023-08-01T11:11:57;5.35;;;0.88;;
75941;SDS011;64622;46.220;19.878;2023-08-01T11:14:25;5.45;;;0.93;;
75941;SDS011;64622;46.220;19.878;2023-08-01T11:16:53;5.62;;;1.10;;
75941;SDS011;64622;46.220;19.878;2023-08-01T11:21:53;5.07;;;1.00;;
75941;SDS011;64622;46.220;19.878;2023-08-01T11:24:23;7.28;;;0.90;;
75941;SDS011;64622;46.220;19.878;2023-08-01T11:26:51;5.70;;;0.80;;
75941;SDS011;64622;46.220;19.878;2023-08-01T11:29:20;5.95;;;0.90;;
75941;SDS011;64622;46.220;19.878;2023-08-01T11:31:54;6.60;;;1.00;;
75941;SDS011;64622;46.220;19.878;2023-08-01T11:34:22;7.57;;;1.10;;
75941;SDS011;64622;46.220;19.878;2023-08-01T11:36:49;5.65;;;0.98;;
75941;SDS011;64622;46.220;19.878;2023-08-01T11:39:17;5.07;;;1.00;;
75941;SDS011;64622;46.220;19.878;2023-08-01T11:41:44;6.35;;;0.82;;
75941;SDS011;64622;46.220;19.878;2023-08-01T11:44:11;9.63;;;1.00;;
75941;SDS011;64622;46.220;19.878;2023-08-01T11:46:38;4.57;;;0.80;;
75941;SDS011;64622;46.220;19.878;2023-08-01T11:49:06;5.20;;;1.15;;
75941;SDS011;64622;46.220;19.878;2023-08-01T11:51:40;6.93;;;0.93;;
75941;SDS011;64622;46.220;19.878;2023-08-01T11:54:09;4.68;;;0.68;;
75941;SDS011;64622;46.220;19.878;2023-08-01T11:56:38;4.55;;;0.93;;
75941;SDS011;64622;46.220;19.878;2023-08-01T11:59:12;5.17;;;1.00;;
75941;SDS011;64622;46.220;19.878;2023-08-01T12:01:44;6.28;;;1.00;;
75941;SDS011;64622;46.220;19.878;2023-08-01T12:04:23;5.90;;;0.80;;
75941;SDS011;64622;46.220;19.878;2023-08-01T12:06:50;5.57;;;1.10;;
75941;SDS011;64622;46.220;19.878;2023-08-01T12:09:18;5.28;;;0.80;;
75941;SDS011;64622;46.220;19.878;2023-08-01T12:11:57;5.10;;;0.90;;
75941;SDS011;64622;46.220;19.878;2023-08-01T12:14:25;5.50;;;0.90;;
75941;SDS011;64622;46.220;19.878;2023-08-01T12:16:54;4.53;;;0.80;;
75941;SDS011;64622;46.220;19.878;2023-08-01T12:19:20;8.93;;;1.10;;
75941;SDS011;64622;46.220;19.878;2023-08-01T12:21:47;5.12;;;1.05;;
75941;SDS011;64622;46.220;19.878;2023-08-01T12:24:14;5.87;;;1.00;;
75941;SDS011;64622;46.220;19.878;2023-08-01T12:26:41;6.97;;;1.55;;
75941;SDS011;64622;46.220;19.878;2023-08-01T12:29:07;6.72;;;1.33;;
75941;SDS011;64622;46.220;19.878;2023-08-01T12:31:34;6.40;;;1.20;;
75941;SDS011;64622;46.220;19.878;2023-08-01T12:34:00;5.87;;;0.85;;
75941;SDS011;64622;46.220;19.878;2023-08-01T12:36:27;8.00;;;1.23;;
75941;SDS011;64622;46.220;19.878;2023-08-01T12:38:54;6.28;;;1.00;;
75941;SDS011;64622;46.220;19.878;2023-08-01T12:41:20;6.47;;;0.93;;
75941;SDS011;64622;46.220;19.878;2023-08-01T12:43:47;5.60;;;1.23;;
75941;SDS011;64622;46.220;19.878;2023-08-01T12:46:14;4.62;;;0.90;;
75941;SDS011;64622;46.220;19.878;2023-08-01T12:48:40;6.00;;;1.27;;
75941;SDS011;64622;46.220;19.878;2023-08-01T12:51:07;5.95;;;1.20;;
75941;SDS011;64622;46.220;19.878;2023-08-01T12:53:34;7.30;;;1.30;;
75941;SDS011;64622;46.220;19.878;2023-08-01T12:56:01;5.15;;;1.10;;
75941;SDS011;64622;46.220;19.878;2023-08-01T12:58:29;5.30;;;1.30;;
75941;SDS011;64622;46.220;19.878;2023-08-01T13:00:56;5.47;;;1.10;;
75941;SDS011;64622;46.220;19.878;2023-08-01T13:03:22;7.50;;;0.98;;
75941;SDS011;64622;46.220;19.878;2023-08-01T13:05:49;7.55;;;1.30;;
75941;SDS011;64622;46.220;19.878;2023-08-01T13:08:15;7.22;;;1.23;;
75941;SDS011;64622;46.220;19.878;2023-08-01T13:10:42;9.13;;;1.20;;
75941;SDS011;64622;46.220;19.878;2023-08-01T13:13:11;5.93;;;1.50;;
75941;SDS011;64622;46.220;19.878;2023-08-01T13:15:37;5.07;;;1.15;;
75941;SDS011;64622;46.220;19.878;2023-08-01T13:18:04;6.22;;;1.33;;
75941;SDS011;64622;46.220;19.878;2023-08-01T13:20:31;5.10;;;0.90;;
75941;SDS011;64622;46.220;19.878;2023-08-01T13:22:58;6.37;;;0.98;;
75941;SDS011;64622;46.220;19.878;2023-08-01T13:25:24;6.17;;;1.07;;
75941;SDS011;64622;46.220;19.878;2023-08-01T13:27:51;6.00;;;0.77;;
75941;SDS011;64622;46.220;19.878;2023-08-01T13:30:17;5.37;;;1.05;;
75941;SDS011;64622;46.220;19.878;2023-08-01T13:32:44;5.62;;;1.12;;
75941;SDS011;64622;46.220;19.878;2023-08-01T13:35:12;6.72;;;0.85;;
75941;SDS011;64622;46.220;19.878;2023-08-01T13:37:39;7.93;;;1.30;;
75941;SDS011;64622;46.220;19.878;2023-08-01T13:40:05;10.57;;;1.20;;
75941;SDS011;64622;46.220;19.878;2023-08-01T13:42:33;6.47;;;1.20;;
75941;SDS011;64622;46.220;19.878;2023-08-01T13:44:59;7.32;;;1.20;;
75941;SDS011;64622;46.220;19.878;2023-08-01T13:47:26;4.43;;;0.90;;
75941;SDS011;64622;46.220;19.878;2023-08-01T13:49:53;4.77;;;1.00;;
75941;SDS011;64622;46.220;19.878;2023-08-01T13:52:19;6.07;;;1.02;;
75941;SDS011;64622;46.220;19.878;2023-08-01T13:54:46;5.47;;;1.10;;
75941;SDS011;64622;46.220;19.878;2023-08-01T13:57:13;6.80;;;1.10;;
75941;SDS011;64622;46.220;19.878;2023-08-01T13:59:39;6.70;;;1.20;;
75941;SDS011;64622;46.220;19.878;2023-08-01T14:02:06;9.07;;;1.40;;
75941;SDS011;64622;46.220;19.878;2023-08-01T14:04:33;6.15;;;1.20;;
75941;SDS011;64622;46.220;19.878;2023-08-01T14:06:59;5.15;;;1.12;;
75941;SDS011;64622;46.220;19.878;2023-08-01T14:09:26;6.80;;;1.40;;
75941;SDS011;64622;46.220;19.878;2023-08-01T14:11:53;6.00;;;1.20;;
75941;SDS011;64622;46.220;19.878;2023-08-01T14:14:20;9.40;;;1.43;;
75941;SDS011;64622;46.220;19.878;2023-08-01T14:16:46;6.90;;;1.20;;
75941;SDS011;64622;46.220;19.878;2023-08-01T14:19:13;7.50;;;1.25;;
75941;SDS011;64622;46.220;19.878;2023-08-01T14:21:40;6.40;;;1.05;;
75941;SDS011;64622;46.220;19.878;2023-08-01T14:24:06;5.03;;;0.90;;
75941;SDS011;64622;46.220;19.878;2023-08-01T14:26:33;5.87;;;1.10;;
75941;SDS011;64622;46.220;19.878;2023-08-01T14:29:00;6.50;;;1.20;;
75941;SDS011;64622;46.220;19.878;2023-08-01T14:31:26;5.70;;;1.10;;
75941;SDS011;64622;46.220;19.878;2023-08-01T14:33:53;6.68;;;1.00;;
75941;SDS011;64622;46.220;19.878;2023-08-01T14:36:19;4.95;;;0.90;;